Time;durP1;ratioP1;P1;durP2;ratioP2;P2;SDS_P1;SDS_P2;PMS_P1;PMS_P2;Temp;Humidity;BMP_temperature;BMP_pressure;BME280_temperature;BME280_humidity;BME280_pressure;Samples;Min_cycle;Max_cycle;Signal;HPM_P1;HPM_P2
2023/04/17 00:01:23;;;;;;;20.80;13.63;;;;;;;;;;4938437;29;20459;-82
2023/04/17 00:03:51;;;;;;;22.23;14.70;;;;;;;;;;4938345;29;20468;-82
2023/04/17 00:06:19;;;;;;;20.40;12.53;;;7.80;99.90;;;;;;4937193;29;20958;-82
2023/04/17 00:08:46;;;;;;;20.90;15.00;;;;;;;;;;4938422;29;20460;-82
2023/04/17 00:11:13;;;;;;;20.97;13.47;;;;;;;;;;4938291;29;20475;-82
2023/04/17 00:13:40;;;;;;;21.23;13.93;;;;;;;;;;4938157;29;20519;-82
2023/04/17 00:16:09;;;;;;;18.30;13.40;;;;;;;;;;4937986;29;20456;-82
2023/04/17 00:18:36;;;;;;;23.23;13.53;;;;;;;;;;4937335;29;20507;-82
2023/04/17 00:21:03;;;;;;;22.73;14.20;;;;;;;;;;4936990;29;20833;-82
2023/04/17 00:23:32;;;;;;;23.47;13.93;;;;;;;;;;4937853;29;20459;-82
2023/04/17 00:25:59;;;;;;;24.00;14.23;;;;;;;;;;4937972;29;20456;-83
2023/04/17 00:28:26;;;;;;;21.57;14.17;;;;;;;;;;4938273;29;20452;-82
2023/04/17 00:30:53;;;;;;;21.23;14.10;;;;;;;;;;4937994;29;20460;-82
2023/04/17 00:33:20;;;;;;;18.77;13.13;;;;;;;;;;4937871;29;20474;-82
2023/04/17 00:35:47;;;;;;;20.17;13.40;;;;;;;;;;4936601;29;20456;-82
2023/04/17 00:38:14;;;;;;;22.63;15.73;;;;;;;;;;4937608;29;20502;-82
2023/04/17 00:40:44;;;;;;;21.70;14.43;;;7.70;99.90;;;;;;4937754;29;20536;-82
2023/04/17 00:43:11;;;;;;;24.80;14.50;;;;;;;;;;4937905;29;20466;-82
2023/04/17 00:45:38;;;;;;;23.23;14.73;;;;;;;;;;4938204;29;20456;-82
2023/04/17 00:48:06;;;;;;;20.80;14.83;;;;;;;;;;4938496;29;20983;-82
2023/04/17 00:50:33;;;;;;;20.20;13.33;;;7.80;99.90;;;;;;4953884;29;20459;-82
2023/04/17 00:53:01;;;;;;;18.80;13.03;;;;;;;;;;4947373;29;20948;-82
2023/04/17 00:55:30;;;;;;;20.23;13.43;;;7.80;99.90;;;;;;4937679;29;20456;-82
2023/04/17 00:57:58;;;;;;;20.53;13.80;;;7.60;99.90;;;;;;4937262;29;20488;-82
2023/04/17 01:00:25;;;;;;;20.40;14.10;;;;;;;;;;4937474;29;20821;-82
2023/04/17 01:02:52;;;;;;;23.97;14.43;;;;;;;;;;4937258;29;20835;-82
2023/04/17 01:05:19;;;;;;;20.57;13.77;;;;;;;;;;4936080;29;20452;-82
2023/04/17 01:07:47;;;;;;;18.97;12.43;;;;;;;;;;4937279;29;20459;-82
2023/04/17 01:10:14;;;;;;;20.67;13.33;;;;;;;;;;4937056;29;20471;-82
2023/04/17 01:12:45;;;;;;;17.70;12.97;;;;;;;;;;4937107;29;20852;-82
2023/04/17 01:15:13;;;;;;;24.97;14.10;;;7.70;99.90;;;;;;4936990;29;20460;-82
2023/04/17 01:17:40;;;;;;;18.87;13.30;;;;;;;;;;4936996;29;20841;-82
2023/04/17 01:20:09;;;;;;;27.53;15.37;;;7.70;99.90;;;;;;4935794;29;20463;-82
2023/04/17 01:22:36;;;;;;;23.93;14.40;;;;;;;;;;4936926;29;20503;-83
2023/04/17 01:25:05;;;;;;;20.20;13.40;;;7.60;99.90;;;;;;4936804;29;20456;-82
2023/04/17 01:27:34;;;;;;;20.40;14.00;;;;;;;;;;4936855;29;20448;-82
2023/04/17 01:30:01;;;;;;;18.90;13.50;;;;;;;;;;4935845;29;20462;-82
2023/04/17 01:32:28;;;;;;;20.17;12.90;;;;;;;;;;4936650;29;20452;-82
2023/04/17 01:34:55;;;;;;;18.93;12.50;;;;;;;;;;4935515;29;20459;-82
2023/04/17 01:37:22;;;;;;;17.73;12.93;;;;;;;;;;4936518;29;21000;-82
2023/04/17 01:39:49;;;;;;;19.60;13.00;;;;;;;;;;4936595;29;20954;-82
2023/04/17 01:42:17;;;;;;;18.97;13.67;;;7.70;99.90;;;;;;4936577;29;20478;-82
2023/04/17 01:44:44;;;;;;;21.27;13.40;;;;;;;;;;4936430;29;20456;-82
2023/04/17 01:47:11;;;;;;;18.20;12.73;;;;;;;;;;4935188;29;20452;-82
2023/04/17 01:49:38;;;;;;;19.23;12.00;;;;;;;;;;4935353;29;20448;-82
2023/04/17 01:52:06;;;;;;;19.67;14.10;;;;;;;;;;4936106;29;20951;-82
2023/04/17 01:54:33;;;;;;;22.97;14.83;;;;;;;;;;4936393;29;20475;-82
2023/04/17 01:57:01;;;;;;;20.07;13.97;;;;;;;;;;4936027;29;20448;-82
2023/04/17 01:59:29;;;;;;;20.47;12.73;;;7.60;99.90;;;;;;4936140;29;20963;-83
2023/04/17 02:01:56;;;;;;;18.10;13.60;;;;;;;;;;4936295;29;20459;-82
2023/04/17 02:04:23;;;;;;;17.50;12.57;;;;;;;;;;4935500;29;20484;-82
2023/04/17 02:06:51;;;;;;;23.03;13.50;;;;;;;;;;4935915;29;20797;-82
2023/04/17 02:09:18;;;;;;;18.73;12.43;;;;;;;;;;4936174;29;20527;-82
2023/04/17 02:11:45;;;;;;;20.50;12.83;;;;;;;;;;4936041;29;20831;-83
2023/04/17 02:14:12;;;;;;;18.97;13.80;;;;;;;;;;4935960;29;20466;-83
2023/04/17 02:16:44;;;;;;;25.67;14.70;;;7.60;99.90;;;;;;4935848;29;20492;-82
2023/04/17 02:19:11;;;;;;;22.87;14.60;;;;;;;;;;4935912;29;20499;-82
2023/04/17 02:21:38;;;;;;;21.50;14.93;;;;;;;;;;4934688;29;20796;-83
2023/04/17 02:24:06;;;;;;;23.30;14.43;;;;;;;;;;4936160;29;20881;-82
2023/04/17 02:26:33;;;;;;;21.00;13.47;;;;;;;;;;4935784;29;20467;-82
2023/04/17 02:29:00;;;;;;;15.80;12.57;;;;;;;;;;4935933;29;20474;-82
2023/04/17 02:31:27;;;;;;;19.47;12.90;;;;;;;;;;4935787;29;20452;-82
2023/04/17 02:33:55;;;;;;;19.10;13.50;;;;;;;;;;4935773;29;20458;-82
2023/04/17 02:36:22;;;;;;;17.43;12.40;;;;;;;;;;4934582;29;20960;-82
2023/04/17 02:38:49;;;;;;;18.50;12.33;;;;;;;;;;4935432;29;20578;-82
2023/04/17 02:41:16;;;;;;;20.70;13.00;;;;;;;;;;4935451;29;20455;-82
2023/04/17 02:43:44;;;;;;;21.00;14.07;;;;;;;;;;4935734;29;20460;-82
2023/04/17 02:46:11;;;;;;;23.90;14.67;;;;;;;;;;4935659;29;20459;-82
2023/04/17 02:48:38;;;;;;;22.90;15.23;;;;;;;;;;4935739;29;20487;-82
2023/04/17 02:51:06;;;;;;;20.97;13.77;;;7.60;99.90;;;;;;4934612;29;20452;-82
2023/04/17 02:53:33;;;;;;;22.20;14.63;;;;;;;;;;4935635;29;20448;-83
2023/04/17 02:56:00;;;;;;;26.23;14.87;;;;;;;;;;4935574;29;20448;-83
2023/04/17 02:58:27;;;;;;;24.20;15.90;;;;;;;;;;4935465;29;20503;-83
2023/04/17 03:00:59;;;;;;;23.13;14.80;;;;;;;;;;4935526;29;20952;-83
2023/04/17 03:03:29;;;;;;;23.23;14.77;;;;;;;;;;4935583;29;20452;-83
2023/04/17 03:05:57;;;;;;;22.10;13.80;;;;;;;;;;4934319;29;20536;-82
2023/04/17 03:08:28;;;;;;;20.53;13.60;;;7.60;99.90;;;;;;4935368;29;20534;-83
2023/04/17 03:10:55;;;;;;;23.80;14.90;;;;;;;;;;4935502;29;21077;-83
2023/04/17 03:13:22;;;;;;;24.83;14.80;;;;;;;;;;4935404;29;20476;-83
2023/04/17 03:15:49;;;;;;;20.80;13.77;;;;;;;;;;4935406;29;20463;-82
2023/04/17 03:18:16;;;;;;;22.63;13.90;;;;;;;;;;4934892;29;20495;-83
2023/04/17 03:20:44;;;;;;;24.90;15.20;;;;;;;;;;4934188;29;20451;-83
2023/04/17 03:23:11;;;;;;;22.33;14.90;;;;;;;;;;4935437;29;20459;-82
2023/04/17 03:25:39;;;;;;;27.90;15.97;;;7.60;99.90;;;;;;4935412;29;20452;-83
2023/04/17 03:28:06;;;;;;;20.37;14.27;;;;;;;;;;4935371;29;20467;-83
2023/04/17 03:30:33;;;;;;;30.27;15.20;;;;;;;;;;4935275;29;20467;-82
2023/04/17 03:33:00;;;;;;;21.60;14.83;;;;;;;;;;4935329;29;20451;-82
2023/04/17 03:35:27;;;;;;;20.70;14.20;;;;;;;;;;4934058;29;20449;-83
2023/04/17 03:37:54;;;;;;;19.33;13.40;;;;;;;;;;4935167;29;20503;-82
2023/04/17 03:40:21;;;;;;;19.60;13.93;;;;;;;;;;4934974;29;20444;-83
2023/04/17 03:42:49;;;;;;;18.57;13.73;;;7.50;99.90;;;;;;4935204;29;20789;-82
2023/04/17 03:45:16;;;;;;;21.60;14.10;;;;;;;;;;4935188;29;20459;-83
2023/04/17 03:47:43;;;;;;;22.20;14.00;;;;;;;;;;4935091;29;20483;-83
2023/04/17 03:50:11;;;;;;;23.13;14.50;;;;;;;;;;4933851;29;20928;-83
2023/04/17 03:52:38;;;;;;;21.67;14.70;;;;;;;;;;4935935;29;20460;-83
2023/04/17 03:55:06;;;;;;;24.80;13.80;;;8.40;99.90;;;;;;4938401;29;20451;-82
2023/04/17 03:57:33;;;;;;;23.23;14.67;;;;;;;;;;4940824;29;21039;-83
2023/04/17 04:00:01;;;;;;;20.73;14.33;;;;;;;;;;4957313;29;20499;-82
2023/04/17 04:02:28;;;;;;;21.07;14.43;;;;;;;;;;4957443;29;20458;-83
2023/04/17 04:04:55;;;;;;;20.00;12.47;;;;;;;;;;4956261;29;20532;-84
2023/04/17 04:07:22;;;;;;;17.73;12.57;;;;;;;;;;4957334;29;20444;-83
2023/04/17 04:09:49;;;;;;;22.37;13.73;;;;;;;;;;4957031;29;20490;-83
2023/04/17 04:12:21;;;;;;;23.37;14.80;;;;;;;;;;4957335;29;20444;-83
2023/04/17 04:14:48;;;;;;;23.33;14.00;;;;;;;;;;4957324;28;20821;-83
2023/04/17 04:17:20;;;;;;;20.30;13.60;;;7.50;99.90;;;;;;4957017;29;20494;-83
2023/04/17 04:19:47;;;;;;;21.90;13.23;;;;;;;;;;4956059;29;20498;-82
2023/04/17 04:22:14;;;;;;;25.73;14.40;;;;;;;;;;4957141;29;20534;-83
2023/04/17 04:24:42;;;;;;;22.17;13.13;;;;;;;;;;4956825;29;20443;-84
2023/04/17 04:27:10;;;;;;;22.60;14.20;;;;;;;;;;4957060;29;20501;-82
2023/04/17 04:29:38;;;;;;;18.60;11.67;;;;;;;;;;4956931;29;20513;-83
2023/04/17 04:32:08;;;;;;;20.00;12.93;;;;;;;;;;4957048;29;20454;-83
2023/04/17 04:34:36;;;;;;;21.27;12.40;;;;;;;;;;4955730;29;20459;-83
2023/04/17 04:37:03;;;;;;;16.67;12.43;;;;;;;;;;4956810;29;20458;-83
2023/04/17 04:39:30;;;;;;;22.97;14.13;;;;;;;;;;4956755;29;20495;-83
2023/04/17 04:42:04;;;;;;;22.60;13.77;;;7.50;99.90;;;;;;4956724;29;20463;-82
2023/04/17 04:44:31;;;;;;;19.77;13.83;;;;;;;;;;4956770;28;20943;-84
2023/04/17 04:46:58;;;;;;;23.30;14.80;;;;;;;;;;4956687;29;20455;-84
2023/04/17 04:49:26;;;;;;;25.23;15.77;;;;;;;;;;4955739;29;20459;-83
2023/04/17 04:51:54;;;;;;;22.50;14.83;;;;;;;;;;4956610;29;20455;-84
2023/04/17 04:54:21;;;;;;;23.10;15.23;;;;;;;;;;4956616;29;20454;-83
2023/04/17 04:56:49;;;;;;;20.57;14.27;;;;;;;;;;4956380;29;20451;-83
2023/04/17 04:59:16;;;;;;;22.03;14.57;;;;;;;;;;4956435;28;20487;-84
2023/04/17 05:01:44;;;;;;;18.37;13.67;;;;;;;;;;4956352;29;20450;-84
2023/04/17 05:04:11;;;;;;;19.03;13.63;;;;;;;;;;4956397;28;20475;-83
2023/04/17 05:06:38;;;;;;;21.03;13.57;;;;;;;;;;4955133;29;20858;-84
2023/04/17 05:09:06;;;;;;;20.67;14.47;;;7.40;99.90;;;;;;4956123;29;20986;-83
2023/04/17 05:11:33;;;;;;;18.83;13.00;;;;;;;;;;4956165;29;20454;-83
2023/04/17 05:14:00;;;;;;;21.17;13.90;;;;;;;;;;4956367;29;20536;-84
2023/04/17 05:16:27;;;;;;;20.23;13.40;;;;;;;;;;4955985;29;20451;-84
2023/04/17 05:18:54;;;;;;;22.97;14.93;;;;;;;;;;4956105;29;20510;-83
2023/04/17 05:21:21;;;;;;;18.53;12.07;;;;;;;;;;4954868;29;20459;-83
2023/04/17 05:23:48;;;;;;;21.43;13.70;;;;;;;;;;4955843;29;20455;-83
2023/04/17 05:26:16;;;;;;;19.77;13.03;;;7.50;99.90;;;;;;4955968;29;20455;-84
2023/04/17 05:28:44;;;;;;;18.77;12.83;;;;;;;;;;4955888;29;20459;-83
2023/04/17 05:31:11;;;;;;;19.90;12.80;;;;;;;;;;4955598;29;20557;-82
2023/04/17 05:33:38;;;;;;;20.07;14.23;;;;;;;;;;4937548;29;20448;-84
2023/04/17 05:36:06;;;;;;;19.20;13.27;;;;;;;;;;4935347;29;20463;-84
2023/04/17 05:38:33;;;;;;;20.00;14.40;;;;;;;;;;4936354;29;20487;-84
2023/04/17 05:41:00;;;;;;;18.03;12.77;;;;;;;;;;4936512;29;20456;-83
2023/04/17 05:43:29;;;;;;;23.00;13.67;;;7.70;99.90;;;;;;4947674;29;20455;-84
2023/04/17 05:45:56;;;;;;;18.50;14.17;;;;;;;;;;4955472;29;20455;-82
2023/04/17 05:48:23;;;;;;;21.30;13.87;;;;;;;;;;4955604;29;20463;-84
2023/04/17 05:50:50;;;;;;;18.90;13.10;;;;;;;;;;4954318;29;20462;-82
2023/04/17 05:53:17;;;;;;;20.70;13.57;;;;;;;;;;4955431;29;20475;-84
2023/04/17 05:55:44;;;;;;;21.07;11.80;;;;;;;;;;4955395;29;20455;-80
2023/04/17 05:58:11;;;;;;;18.13;13.13;;;;;;;;;;4955267;29;20459;-86
2023/04/17 06:00:41;;;;;;;18.13;11.63;;;7.70;99.90;;;;;;4954074;29;20503;-81
2023/04/17 06:03:09;;;;;;;21.90;11.87;;;;;;;;;;4921683;29;20455;-83
2023/04/17 06:05:36;;;;;;;17.70;12.80;;;;;;;;;;4953961;29;20447;-82
2023/04/17 06:08:03;;;;;;;19.30;12.77;;;;;;;;;;4955232;29;20507;-80
2023/04/17 06:10:32;;;;;;;18.20;12.17;;;;;;;;;;4954871;29;20455;-83
2023/04/17 06:13:00;;;;;;;21.63;14.13;;;;;;;;;;4955238;28;20459;-83
2023/04/17 06:15:27;;;;;;;18.93;12.77;;;;;;;;;;4954663;28;20475;-81
2023/04/17 06:17:55;;;;;;;23.93;12.90;;;7.60;99.90;;;;;;4954919;29;20490;-79
2023/04/17 06:20:22;;;;;;;18.33;12.70;;;;;;;;;;4953661;29;20860;-81
2023/04/17 06:22:49;;;;;;;20.40;12.80;;;;;;;;;;4955008;29;20459;-84
2023/04/17 06:25:16;;;;;;;17.90;10.83;;;;;;;;;;4954989;29;20497;-82
2023/04/17 06:27:43;;;;;;;16.53;11.07;;;;;;;;;;4954977;29;20458;-85
2023/04/17 06:30:11;;;;;;;16.30;11.23;;;;;;;;;;4954970;29;20443;-83
2023/04/17 06:32:41;;;;;;;14.83;10.53;;;7.70;99.90;;;;;;4954740;29;20454;-81
2023/04/17 06:35:10;;;;;;;14.30;10.33;;;7.80;99.90;;;;;;4953781;28;20447;-81
2023/04/17 06:37:37;;;;;;;12.50;10.20;;;;;;;;;;4954875;29;20455;-84
2023/04/17 06:40:05;;;;;;;16.40;10.70;;;;;;;;;;4954582;29;20508;-83
2023/04/17 06:42:33;;;;;;;14.80;10.27;;;;;;;;;;4954889;29;20885;-82
2023/04/17 06:45:00;;;;;;;17.40;11.40;;;;;;;;;;4954741;29;20455;-86
2023/04/17 06:47:27;;;;;;;19.23;10.80;;;;;;;;;;4954810;29;20451;-81
2023/04/17 06:49:56;;;;;;;17.67;11.03;;;;;;;;;;4953553;29;20478;-81
2023/04/17 06:52:25;;;;;;;15.57;10.23;;;7.80;99.90;;;;;;4954754;29;20475;-81
2023/04/17 06:54:52;;;;;;;16.53;11.13;;;;;;;;;;4954703;28;20451;-81
2023/04/17 06:57:19;;;;;;;14.93;10.50;;;;;;;;;;4954582;29;20467;-81
2023/04/17 06:59:46;;;;;;;12.93;10.57;;;;;;;;;;4949106;29;20503;-80
2023/04/17 07:02:13;;;;;;;15.90;11.37;;;;;;;;;;4932419;29;20486;-79
2023/04/17 07:04:40;;;;;;;14.57;10.47;;;;;;;;;;4930406;29;20463;-80
2023/04/17 07:07:07;;;;;;;15.10;9.87;;;;;;;;;;4936212;29;20475;-79
2023/04/17 07:09:36;;;;;;;21.17;11.37;;;7.90;99.90;;;;;;4935397;29;20492;-80
2023/04/17 07:12:03;;;;;;;16.73;11.70;;;;;;;;;;4935558;29;20451;-78
2023/04/17 07:14:30;;;;;;;23.33;12.47;;;;;;;;;;4935302;29;20546;-81
2023/04/17 07:16:58;;;;;;;14.30;11.33;;;;;;;;;;4935214;29;21054;-81
2023/04/17 07:19:25;;;;;;;11.67;10.13;;;;;;;;;;4934703;29;20495;-78
2023/04/17 07:21:52;;;;;;;14.03;10.80;;;;;;;;;;4935033;29;20459;-80
2023/04/17 07:24:19;;;;;;;14.67;11.10;;;;;;;;;;4935413;29;20857;-78
2023/04/17 07:26:48;;;;;;;15.63;10.53;;;7.80;99.90;;;;;;4935235;29;20443;-77
2023/04/17 07:29:15;;;;;;;15.83;10.47;;;;;;;;;;4938689;29;20483;-81
2023/04/17 07:31:42;;;;;;;13.40;9.70;;;;;;;;;;4939130;29;20807;-79
2023/04/17 07:34:09;;;;;;;12.20;8.90;;;;;;;;;;4938979;29;20474;-78
2023/04/17 07:36:36;;;;;;;14.10;9.93;;;;;;;;;;4937760;29;20463;-78
2023/04/17 07:39:05;;;;;;;14.83;10.30;;;;;;;;;;4938772;29;20867;-78
2023/04/17 07:41:32;;;;;;;14.20;10.93;;;;;;;;;;4938617;29;20463;-78
2023/04/17 07:44:02;;;;;;;17.80;11.10;;;7.80;99.90;;;;;;4938627;29;20458;-78
2023/04/17 07:46:29;;;;;;;14.70;10.67;;;;;;;;;;4938753;29;20873;-78
2023/04/17 07:48:56;;;;;;;15.03;10.60;;;;;;;;;;4938633;29;20456;-78
2023/04/17 07:51:23;;;;;;;16.00;10.83;;;;;;;;;;4937127;29;20452;-78
2023/04/17 07:53:50;;;;;;;14.33;10.37;;;;;;;;;;4938298;29;20460;-78
2023/04/17 07:56:17;;;;;;;13.90;9.20;;;;;;;;;;4937709;29;20452;-89
2023/04/17 07:58:45;;;;;;;13.53;9.20;;;;;;;;;;4938587;29;20827;-81
2023/04/17 08:01:13;;;;;;;12.60;9.40;;;8.10;99.90;;;;;;4934629;29;20491;-78
2023/04/17 08:03:43;;;;;;;15.70;9.43;;;;;;;;;;4938036;29;20960;-86
2023/04/17 08:06:10;;;;;;;9.63;8.00;;;;;;;;;;4937381;29;20464;-81
2023/04/17 08:08:37;;;;;;;14.00;8.57;;;;;;;;;;4938375;29;20476;-86
2023/04/17 08:11:04;;;;;;;11.27;7.40;;;;;;;;;;4938177;29;20472;-79
2023/04/17 08:13:32;;;;;;;11.00;7.20;;;;;;;;;;4937845;29;20452;-86
2023/04/17 08:16:00;;;;;;;10.70;7.93;;;;;;;;;;4938104;29;20502;-79
2023/04/17 08:18:28;;;;;;;11.97;7.97;;;8.20;99.90;;;;;;4941053;29;20488;-94
2023/04/17 08:20:55;;;;;;;10.87;7.33;;;;;;;;;;4938440;29;20487;-80
2023/04/17 08:23:22;;;;;;;13.47;9.20;;;;;;;;;;4937913;29;20456;-84
2023/04/17 08:25:49;;;;;;;12.43;9.00;;;;;;;;;;4937863;29;20967;-82
2023/04/17 08:28:17;;;;;;;10.20;7.53;;;;;;;;;;4935162;29;20528;-84
2023/04/17 08:30:44;;;;;;;10.57;8.13;;;;;;;;;;4937866;29;20452;-86
2023/04/17 08:33:15;;;;;;;11.53;8.70;;;;;;;;;;4937930;29;20903;-80
2023/04/17 08:35:44;;;;;;;9.13;7.87;;;;;;;;;;4935907;29;20816;-82
2023/04/17 08:38:12;;;;;;;10.57;8.20;;;;;;;;;;4936904;29;20526;-79
2023/04/17 08:40:41;;;;;;;10.50;7.37;;;;;;;;;;4938316;29;20506;-80
2023/04/17 08:43:13;;;;;;;9.50;7.43;;;8.20;99.90;;;;;;4937365;29;20987;-84
2023/04/17 08:45:46;;;;;;;10.90;8.10;;;8.20;99.90;;;;;;4904116;29;20562;-89
2023/04/17 08:48:13;;;;;;;10.97;8.43;;;;;;;;;;4937479;29;20459;-83
2023/04/17 08:50:46;;;;;;;9.80;6.70;;;8.30;99.90;;;;;;4936349;29;20451;-80
2023/04/17 08:53:14;;;;;;;9.50;7.80;;;8.30;99.90;;;;;;4937485;29;20455;-81
2023/04/17 08:55:41;;;;;;;8.93;7.30;;;;;;;;;;4937180;29;20817;-84
2023/04/17 08:58:08;;;;;;;12.10;9.97;;;;;;;;;;4937567;29;20959;-84
2023/04/17 09:00:36;;;;;;;10.17;8.37;;;8.30;99.90;;;;;;4937473;29;20539;-81
2023/04/17 09:03:06;;;;;;;11.30;8.13;;;8.30;99.90;;;;;;4937270;29;20463;-81
2023/04/17 09:05:35;;;;;;;9.67;7.87;;;;;;;;;;4936210;29;20514;-80
2023/04/17 09:08:12;;;;;;;11.30;7.77;;;8.30;99.90;;;;;;4937268;29;20820;-82
2023/04/17 09:10:39;;;;;;;10.60;8.17;;;;;;;;;;4913677;29;20883;-86
2023/04/17 09:13:07;;;;;;;10.27;7.77;;;;;;;;;;4913540;29;20441;-83
2023/04/17 09:15:34;;;;;;;11.23;8.60;;;;;;;;;;4915919;29;20445;-83
2023/04/17 09:18:02;;;;;;;10.30;7.40;;;;;;;;;;4915903;29;21008;-85
2023/04/17 09:20:29;;;;;;;10.47;8.03;;;;;;;;;;4914871;29;20504;-82
2023/04/17 09:23:00;;;;;;;13.10;7.97;;;8.70;99.90;;;;;;4916296;29;20884;-85
2023/04/17 09:25:29;;;;;;;10.87;8.23;;;8.70;99.90;;;;;;4916181;29;20453;-85
2023/04/17 09:28:10;;;;;;;9.20;7.70;;;8.80;99.90;;;;;;4918642;29;20449;-85
2023/04/17 09:30:38;;;;;;;7.90;6.50;;;;;;;;;;4936932;29;20463;-86
2023/04/17 09:33:06;;;;;;;9.67;7.40;;;9.20;99.90;;;;;;4937148;29;20487;-84
2023/04/17 09:35:33;;;;;;;10.03;7.80;;;;;;;;;;4932751;29;20937;-82
2023/04/17 09:38:01;;;;;;;11.30;7.93;;;9.40;99.90;;;;;;4932528;29;20475;-82
2023/04/17 09:40:38;;;;;;;10.93;7.80;;;9.50;99.90;;;;;;4930893;29;20496;-83
2023/04/17 09:43:06;;;;;;;8.33;6.50;;;9.50;99.90;;;;;;4915306;29;20448;-87
2023/04/17 09:45:37;;;;;;;8.33;6.83;;;9.50;99.90;;;;;;4912718;29;20480;-88
2023/04/17 09:48:06;;;;;;;8.13;6.53;;;9.20;99.90;;;;;;4915552;29;20492;-86
2023/04/17 09:50:34;;;;;;;7.30;6.07;;;;;;;;;;4914180;29;20528;-90
2023/04/17 09:53:03;;;;;;;7.40;6.00;;;;;;;;;;4916677;29;20449;-94
2023/04/17 09:55:32;;;;;;;8.87;6.43;;;9.00;99.90;;;;;;4915722;29;20908;-86
2023/04/17 09:58:01;;;;;;;7.27;5.53;;;8.80;99.90;;;;;;4916135;29;20783;-87
2023/04/17 10:00:28;;;;;;;7.40;6.50;;;;;;;;;;4919639;29;20491;-91
2023/04/17 10:02:57;;;;;;;7.70;6.30;;;9.10;99.90;;;;;;4936241;29;20528;-89
2023/04/17 10:05:25;;;;;;;8.47;6.90;;;9.30;99.90;;;;;;4935700;29;20444;-88
2023/04/17 10:07:53;;;;;;;7.87;5.83;;;;;;;;;;4936648;29;20479;-86
2023/04/17 10:10:24;;;;;;;9.60;7.50;;;10.10;99.90;;;;;;4936668;29;20815;-88
2023/04/17 10:12:55;;;;;;;10.80;7.90;;;10.50;99.90;;;;;;4902541;29;20452;-88
2023/04/17 10:15:24;;;;;;;8.13;6.57;;;10.60;99.90;;;;;;4936314;29;20479;-87
2023/04/17 10:17:52;;;;;;;10.60;5.83;;;;;;;;;;4915729;29;20480;-79
2023/04/17 10:20:38;;;;;;;8.97;7.33;;;10.70;99.90;;;;;;4934704;29;20510;-86
2023/04/17 10:23:31;;;;;;;6.90;5.97;;;10.60;99.90;;;;;;4935364;29;20452;-86
2023/04/17 10:26:37;;;;;;;7.30;5.80;;;10.40;99.90;;;;;;4950181;29;20502;-82
2023/04/17 10:29:06;;;;;;;7.70;6.90;;;;;;;;;;4954494;28;20942;-86
2023/04/17 10:32:23;;;;;;;7.00;6.17;;;9.90;99.90;;;;;;4954879;29;20459;-85
2023/04/17 10:34:50;;;;;;;8.60;5.23;;;;;;;;;;4951954;29;20518;-81
2023/04/17 10:37:17;;;;;;;7.70;6.30;;;;;;;;;;4954378;29;20502;-84
2023/04/17 10:39:58;;;;;;;8.03;5.77;;;9.50;99.90;;;;;;4954570;29;20502;-87
2023/04/17 10:42:26;;;;;;;6.43;5.70;;;;;;;;;;4954753;28;20494;-79
2023/04/17 10:45:00;;;;;;;6.80;5.70;;;9.70;99.90;;;;;;4954766;29;20532;-84
2023/04/17 10:47:36;;;;;;;17.80;10.80;;;9.80;99.90;;;;;;4954340;29;20459;-86
2023/04/17 10:50:07;;;;;;;10.70;7.07;;;9.80;99.90;;;;;;4953803;28;20454;-79
2023/04/17 10:52:40;;;;;;;8.03;6.13;;;9.80;99.90;;;;;;4954638;29;20985;-84
2023/04/17 10:55:09;;;;;;;8.10;6.20;;;9.70;99.90;;;;;;4954613;29;20469;-87
2023/04/17 10:57:53;;;;;;;10.03;6.80;;;10.00;99.90;;;;;;4954445;29;20457;-86
2023/04/17 11:00:29;;;;;;;6.77;6.07;;;10.00;99.90;;;;;;4953803;28;20486;-80
2023/04/17 11:02:56;;;;;;;6.80;5.90;;;;;;;;;;4958438;28;20466;-84
2023/04/17 11:05:24;;;;;;;7.50;5.67;;;;;;;;;;4957713;29;20450;-85
2023/04/17 11:07:51;;;;;;;7.63;5.20;;;;;;;;;;4959436;29;20474;-82
2023/04/17 11:10:19;;;;;;;8.70;5.73;;;10.40;99.90;;;;;;4975761;29;20489;-84
2023/04/17 11:12:47;;;;;;;7.30;5.87;;;10.60;99.90;;;;;;4932220;29;20566;-81
2023/04/17 11:15:15;;;;;;;7.60;5.57;;;;;;;;;;4958168;28;20485;-84
2023/04/17 11:17:48;;;;;;;5.27;4.77;;;11.10;99.90;;;;;;4957799;29;20486;-84
2023/04/17 11:20:17;;;;;;;4.90;4.40;;;;;;;;;;4957321;29;20489;-82
2023/04/17 11:22:45;;;;;;;5.53;3.30;;;;;;;;;;4958284;29;20505;-82
2023/04/17 11:25:23;;;;;;;5.03;4.13;;;;;;;;;;4958419;29;20458;-85
2023/04/17 11:27:55;;;;;;;4.20;3.60;;;;;;;;;;4954486;29;20521;-83
2023/04/17 11:30:27;;;;;;;6.50;3.20;;;;;;;;;;4958698;29;20469;-84
2023/04/17 11:32:55;;;;;;;3.63;3.33;;;;;;;;;;4955640;29;20509;-83
2023/04/17 11:35:24;;;;;;;6.13;4.17;;;;;;;;;;4957019;29;20458;-85
2023/04/17 11:38:07;;;;;;;4.30;3.90;;;;;;;;;;4958281;28;20450;-84
2023/04/17 11:40:34;;;;;;;4.23;3.70;;;;;;;;;;4958114;29;20549;-86
2023/04/17 11:43:07;;;;;;;4.30;3.87;;;;;;;;;;4958268;29;20458;-85
2023/04/17 11:45:35;;;;;;;5.00;4.17;;;;;;;;;;4957603;29;20521;-85
2023/04/17 11:48:04;;;;;;;4.83;4.30;;;;;;;;;;4958214;29;20496;-82
2023/04/17 11:50:31;;;;;;;4.37;3.97;;;;;;;;;;4956747;29;20470;-79
2023/04/17 11:52:58;;;;;;;4.27;3.87;;;;;;;;;;4957457;29;20453;-81
2023/04/17 11:55:29;;;;;;;6.13;4.70;;;;;;;;;;4958215;28;20509;-89
2023/04/17 11:57:57;;;;;;;3.53;3.20;;;;;;;;;;4958327;29;20866;-85
2023/04/17 12:00:27;;;;;;;4.20;3.57;;;;;;;;;;4957619;29;20458;-79
2023/04/17 12:02:55;;;;;;;4.97;3.73;;;;;;;;;;4957626;29;20487;-81
2023/04/17 12:05:25;;;;;;;3.70;3.33;;;;;;;;;;4956598;28;20542;-80
2023/04/17 12:08:03;;;;;;;3.10;2.80;;;;;;;;;;4957509;29;20481;-80
2023/04/17 12:10:41;;;;;;;58.97;44.87;;;14.70;99.90;;;;;;4936251;29;20543;-78
2023/04/17 12:13:08;;;;;;;48.10;43.13;;;;;;;;;;4937182;29;20480;-80
2023/04/17 12:15:35;;;;;;;48.93;41.03;;;;;;;;;;4938114;29;20459;-80
2023/04/17 12:18:07;;;;;;;111.43;61.07;;;;;;;;;;4938215;29;20488;-78
2023/04/17 12:20:36;;;;;;;34.43;30.90;;;12.60;99.90;;;;;;4937114;29;20456;-79
2023/04/17 12:23:04;;;;;;;5.97;5.07;;;;;;;;;;4938164;29;20463;-79
2023/04/17 12:25:31;;;;;;;6.47;5.77;;;;;;;;;;4938250;29;20452;-79
2023/04/17 12:27:59;;;;;;;5.87;4.87;;;;;;;;;;4938428;29;20448;-80
2023/04/17 12:30:26;;;;;;;9.27;5.00;;;;;;;;;;4937973;29;20456;-78
2023/04/17 12:32:53;;;;;;;6.60;5.07;;;;;;;;;;4938013;29;20508;-80
2023/04/17 12:35:20;;;;;;;6.70;5.50;;;;;;;;;;4936758;29;20448;-80
2023/04/17 12:37:50;;;;;;;7.30;5.87;;;10.90;99.90;;;;;;4937900;29;20452;-80
2023/04/17 12:40:17;;;;;;;7.60;6.33;;;;;;;;;;4937843;29;20476;-80
2023/04/17 12:42:46;;;;;;;4.87;4.40;;;;;;;;;;4937670;29;20500;-79
2023/04/17 12:45:13;;;;;;;6.20;4.63;;;;;;;;;;4937582;29;20452;-79
2023/04/17 12:47:40;;;;;;;25.27;17.37;;;;;;;;;;4935178;29;20456;-79
2023/04/17 12:50:09;;;;;;;5.57;4.00;;;;;;;;;;4935175;29;20456;-79
2023/04/17 12:52:36;;;;;;;149.33;64.77;;;;;;;;;;4937058;29;20470;-79
2023/04/17 12:55:06;;;;;;;47.77;32.07;;;;;;;;;;4937002;29;20463;-79
2023/04/17 12:57:33;;;;;;;38.67;34.30;;;;;;;;;;4937074;29;20460;-80
2023/04/17 13:00:00;;;;;;;23.93;22.13;;;;;;;;;;4936916;29;20451;-78
2023/04/17 13:02:27;;;;;;;9.30;8.50;;;;;;;;;;4936862;29;20506;-80
2023/04/17 13:04:55;;;;;;;15.50;14.03;;;;;;;;;;4935883;29;20456;-79
2023/04/17 13:07:22;;;;;;;6.10;5.20;;;;;;;;;;4937026;29;20499;-80
2023/04/17 13:09:49;;;;;;;5.90;5.30;;;;;;;;;;4937153;29;20460;-78
2023/04/17 13:12:17;;;;;;;7.37;6.60;;;;;;;;;;4936967;29;20467;-79
2023/04/17 13:14:44;;;;;;;14.53;13.03;;;;;;;;;;4936591;29;20463;-79
2023/04/17 13:17:11;;;;;;;11.83;10.77;;;;;;;;;;4934761;29;20500;-79
2023/04/17 13:19:38;;;;;;;32.03;28.63;;;;;;;;;;4931854;29;20498;-80
2023/04/17 13:22:06;;;;;;;14.70;13.43;;;;;;;;;;4937183;29;20499;-83
2023/04/17 13:24:34;;;;;;;8.57;7.43;;;;;;;;;;4936987;29;20452;-81
2023/04/17 13:27:01;;;;;;;8.20;7.40;;;;;;;;;;4939532;28;20464;-82
2023/04/17 13:29:30;;;;;;;11.80;10.80;;;;;;;;;;4936731;29;20451;-82
2023/04/17 13:31:57;;;;;;;21.30;19.47;;;;;;;;;;4937025;29;20487;-80
2023/04/17 13:34:24;;;;;;;11.07;10.07;;;;;;;;;;4938241;29;20456;-80
2023/04/17 13:36:52;;;;;;;23.17;20.73;;;;;;;;;;4936192;29;20448;-82
2023/04/17 13:39:20;;;;;;;87.93;53.40;;;;;;;;;;4937122;29;20514;-81
2023/04/17 13:41:47;;;;;;;10.83;6.60;;;;;;;;;;4943204;29;20495;-80
2023/04/17 13:44:16;;;;;;;5.27;4.30;;;;;;;;;;4959201;28;20458;-81
2023/04/17 13:46:44;;;;;;;4.87;4.13;;;;;;;;;;4941717;29;20522;-81
2023/04/17 13:49:11;;;;;;;6.17;4.53;;;;;;;;;;4936634;29;20456;-81
2023/04/17 13:51:38;;;;;;;4.87;4.10;;;;;;;;;;4936480;29;20464;-80
2023/04/17 13:54:06;;;;;;;9.30;6.60;;;;;;;;;;4933959;29;20460;-80
2023/04/17 13:56:33;;;;;;;6.57;4.67;;;;;;;;;;4935643;29;20488;-81
2023/04/17 13:59:00;;;;;;;5.03;4.47;;;;;;;;;;4935999;29;20467;-80
2023/04/17 14:01:27;;;;;;;5.13;4.63;;;;;;;;;;4935776;29;20502;-80
2023/04/17 14:03:59;;;;;;;6.67;5.10;;;;;;;;;;4935921;29;20797;-81
2023/04/17 14:06:26;;;;;;;5.97;4.73;;;;;;;;;;4934565;29;20531;-81
2023/04/17 14:08:54;;;;;;;5.07;4.57;;;;;;;;;;4935767;29;20458;-80